createdAt,value
2022-08-28T00:01:43.671Z,5.78
2022-08-28T00:04:10.090Z,4.43
2022-08-28T00:06:36.380Z,3.33
2022-08-28T00:09:05.811Z,4.50
2022-08-28T00:11:32.086Z,3.70
2022-08-28T00:14:00.826Z,4.90
2022-08-28T00:16:27.535Z,3.90
2022-08-28T00:18:53.882Z,6.28
2022-08-28T00:21:20.240Z,5.85
2022-08-28T00:23:46.500Z,4.47
2022-08-28T00:26:32.753Z,3.30
2022-08-28T00:28:59.027Z,4.25
2022-08-28T00:31:25.357Z,4.05
2022-08-28T00:33:51.700Z,7.30
2022-08-28T00:36:19.586Z,3.65
2022-08-28T00:38:45.880Z,6.25
2022-08-28T00:41:12.712Z,3.85
2022-08-28T00:43:41.610Z,5.55
2022-08-28T00:46:10.792Z,3.10
2022-08-28T00:48:37.585Z,5.10
2022-08-28T00:51:23.146Z,4.25
2022-08-28T00:53:50.055Z,5.38
2022-08-28T00:56:18.426Z,5.15
2022-08-28T00:58:45.744Z,4.28
2022-08-28T01:01:12.977Z,6.53
2022-08-28T01:03:39.332Z,4.32
2022-08-28T01:06:06.612Z,6.03
2022-08-28T01:08:33.900Z,4.38
2022-08-28T01:11:02.670Z,4.85
2022-08-28T01:13:29.991Z,3.75
2022-08-28T01:15:58.075Z,4.68
2022-08-28T01:18:25.298Z,6.32
2022-08-28T01:20:54.664Z,5.57
2022-08-28T01:23:20.993Z,6.28
2022-08-28T01:25:47.399Z,5.10
2022-08-28T01:28:14.699Z,4.90
2022-08-28T01:30:42.349Z,5.50
2022-08-28T01:33:08.764Z,7.80
2022-08-28T01:35:36.330Z,5.03
2022-08-28T01:38:03.555Z,3.97
2022-08-28T01:40:33.145Z,4.78
2022-08-28T01:43:06.595Z,3.80
2022-08-28T01:45:33.011Z,4.25
2022-08-28T01:47:59.291Z,6.40
2022-08-28T01:50:25.625Z,5.28
2022-08-28T01:52:51.861Z,4.75
2022-08-28T01:55:21.474Z,4.53
2022-08-28T01:57:49.805Z,5.32
2022-08-28T02:00:16.266Z,5.95
2022-08-28T02:02:42.673Z,6.10
2022-08-28T02:05:09.770Z,4.95
2022-08-28T02:07:36.214Z,5.85
2022-08-28T02:10:02.956Z,5.30
2022-08-28T02:12:29.961Z,6.18
2022-08-28T02:14:56.232Z,5.15
2022-08-28T02:17:22.521Z,6.28
2022-08-28T02:19:48.788Z,7.03
2022-08-28T02:22:15.092Z,6.63
2022-08-28T02:24:41.388Z,5.28
2022-08-28T02:27:07.858Z,5.55
2022-08-28T02:29:34.242Z,7.05
2022-08-28T02:32:00.708Z,7.47
2022-08-28T02:34:26.995Z,5.97
2022-08-28T02:36:53.275Z,6.00
2022-08-28T02:39:19.563Z,7.60
2022-08-28T02:41:45.828Z,6.07
2022-08-28T02:44:12.135Z,5.03
2022-08-28T02:46:38.487Z,5.90
2022-08-28T02:49:04.830Z,7.45
2022-08-28T02:51:33.476Z,6.18
2022-08-28T02:54:00.217Z,5.35
2022-08-28T02:56:26.633Z,5.63
2022-08-28T02:58:53.069Z,6.35
2022-08-28T03:01:21.770Z,7.88
2022-08-28T03:03:48.596Z,6.47
2022-08-28T03:06:14.906Z,4.38
2022-08-28T03:08:41.994Z,5.10
2022-08-28T03:11:08.367Z,5.72
2022-08-28T03:13:34.736Z,6.13
2022-08-28T03:16:01.033Z,7.93
2022-08-28T03:18:30.042Z,5.63
2022-08-28T03:20:56.883Z,6.53
2022-08-28T03:23:26.204Z,8.23
2022-08-28T03:25:57.219Z,6.22
2022-08-28T03:28:24.184Z,4.60
2022-08-28T03:30:50.947Z,4.82
2022-08-28T03:33:17.928Z,4.53
2022-08-28T03:35:44.251Z,8.45
2022-08-28T03:38:11.562Z,5.15
2022-08-28T03:40:42.481Z,6.53
2022-08-28T03:43:13.348Z,7.43
2022-08-28T03:45:40.275Z,6.13
2022-08-28T03:48:07.308Z,5.65
2022-08-28T03:50:34.159Z,5.38
2022-08-28T03:53:00.495Z,5.00
2022-08-28T03:55:26.818Z,6.45
2022-08-28T03:57:53.149Z,6.05
2022-08-28T04:00:20.354Z,4.85
2022-08-28T04:02:46.629Z,5.22
2022-08-28T04:05:13.940Z,6.45
2022-08-28T04:07:40.388Z,6.43
2022-08-28T04:10:06.953Z,5.45
2022-08-28T04:12:35.256Z,7.47
2022-08-28T04:15:01.896Z,6.40
2022-08-28T04:17:28.209Z,5.28
2022-08-28T04:19:54.600Z,4.60
2022-08-28T04:22:21.014Z,5.90
2022-08-28T04:24:49.929Z,6.28
2022-08-28T04:27:16.282Z,5.93
2022-08-28T04:29:42.551Z,5.30
2022-08-28T04:32:08.966Z,4.28
2022-08-28T04:34:36.637Z,5.88
2022-08-28T04:37:02.920Z,4.13
2022-08-28T04:39:29.267Z,5.65
2022-08-28T04:41:55.564Z,5.95
2022-08-28T04:44:21.835Z,5.80
2022-08-28T04:46:48.262Z,4.47
2022-08-28T04:49:15.544Z,5.75
2022-08-28T04:51:42.337Z,5.90
2022-08-28T04:54:10.808Z,7.35
2022-08-28T04:56:38.683Z,5.13
2022-08-28T04:59:05.088Z,6.30
2022-08-28T05:01:31.507Z,6.65
2022-08-28T05:03:59.425Z,5.88
2022-08-28T05:06:26.845Z,6.75
2022-08-28T05:08:54.768Z,7.10
2022-08-28T05:11:32.991Z,8.40
2022-08-28T05:14:01.199Z,5.25
2022-08-28T05:16:27.580Z,4.72
2022-08-28T05:18:53.902Z,6.80
2022-08-28T05:21:21.626Z,5.32
2022-08-28T05:23:48.678Z,8.88
2022-08-28T05:26:16.025Z,7.60
2022-08-28T05:28:42.351Z,5.30
2022-08-28T05:31:13.052Z,6.90
2022-08-28T05:33:39.429Z,5.75
2022-08-28T05:36:07.021Z,6.97
2022-08-28T05:38:33.695Z,4.25
2022-08-28T05:41:00.228Z,6.10
2022-08-28T05:43:26.811Z,5.93
2022-08-28T05:46:00.376Z,6.45
2022-08-28T05:48:27.876Z,6.35
2022-08-28T05:50:58.307Z,4.88
2022-08-28T05:53:25.657Z,5.18
2022-08-28T05:55:52.469Z,5.57
2022-08-28T05:58:31.771Z,4.55
2022-08-28T06:01:08.467Z,5.05
2022-08-28T06:03:35.216Z,8.25
2022-08-28T06:06:02.017Z,5.90
2022-08-28T06:08:28.635Z,5.95
2022-08-28T06:10:55.381Z,7.78
2022-08-28T06:13:22.066Z,6.50
2022-08-28T06:15:48.799Z,6.88
2022-08-28T06:18:15.545Z,5.78
2022-08-28T06:20:42.922Z,8.38
2022-08-28T06:23:10.060Z,7.07
2022-08-28T06:25:37.868Z,6.25
2022-08-28T06:28:04.152Z,8.27
2022-08-28T06:30:30.953Z,5.97
2022-08-28T06:32:57.679Z,6.95
2022-08-28T06:35:24.093Z,8.13
2022-08-28T06:37:50.413Z,5.63
2022-08-28T06:40:16.831Z,6.00
2022-08-28T06:42:43.488Z,6.95
2022-08-28T06:45:10.015Z,6.45
2022-08-28T06:47:36.263Z,5.30
2022-08-28T06:50:03.174Z,5.57
2022-08-28T06:52:29.899Z,7.63
2022-08-28T06:54:56.627Z,6.30
2022-08-28T06:57:23.682Z,5.28
2022-08-28T06:59:50.056Z,5.18
2022-08-28T07:02:16.762Z,6.07
2022-08-28T07:04:43.154Z,7.90
2022-08-28T07:07:10.428Z,5.82
2022-08-28T07:09:45.178Z,7.90
2022-08-28T07:12:14.147Z,5.82
2022-08-28T07:14:40.526Z,6.80
2022-08-28T07:17:07.518Z,6.75
2022-08-28T07:19:33.880Z,7.22
2022-08-28T07:22:00.197Z,7.90
2022-08-28T07:24:27.021Z,6.50
2022-08-28T07:26:53.365Z,7.32
2022-08-28T07:29:19.768Z,10.10
2022-08-28T07:31:50.607Z,7.35
2022-08-28T07:34:18.153Z,7.93
2022-08-28T07:36:44.649Z,6.50
2022-08-28T07:39:11.430Z,7.30
2022-08-28T07:41:40.160Z,5.15
2022-08-28T07:44:25.779Z,8.05
2022-08-28T07:46:56.034Z,5.90
2022-08-28T07:49:22.828Z,7.18
2022-08-28T07:51:49.196Z,7.05
2022-08-28T07:54:20.481Z,6.90
2022-08-28T07:56:47.468Z,6.20
2022-08-28T07:59:16.850Z,6.90
2022-08-28T08:01:44.693Z,4.68
2022-08-28T08:04:12.927Z,5.38
2022-08-28T08:06:40.677Z,4.68
2022-08-28T08:09:08.184Z,6.80
2022-08-28T08:11:34.603Z,6.63
2022-08-28T08:14:04.682Z,5.88
2022-08-28T08:16:38.485Z,4.88
2022-08-28T08:19:04.824Z,7.10
2022-08-28T08:21:31.490Z,6.00
2022-08-28T08:23:58.442Z,4.35
2022-08-28T08:26:25.676Z,4.22
2022-08-28T08:28:52.132Z,6.60
2022-08-28T08:31:20.196Z,5.72
2022-08-28T08:33:47.713Z,5.38
2022-08-28T08:36:14.720Z,6.47
2022-08-28T08:38:41.510Z,5.15
2022-08-28T08:41:26.871Z,5.78
2022-08-28T08:43:59.177Z,7.72
2022-08-28T08:46:45.771Z,6.68
2022-08-28T08:49:14.953Z,5.80
2022-08-28T08:51:42.626Z,5.93
2022-08-28T08:54:11.721Z,7.45
2022-08-28T08:56:39.146Z,5.88
2022-08-28T08:59:07.927Z,7.53
2022-08-28T09:01:42.210Z,6.45
2022-08-28T09:04:09.315Z,5.50
2022-08-28T09:06:50.765Z,6.13
2022-08-28T09:09:27.732Z,7.40
2022-08-28T09:11:56.549Z,3.90
2022-08-28T09:14:33.934Z,6.60
2022-08-28T09:17:00.999Z,5.78
2022-08-28T09:19:27.297Z,9.05
2022-08-28T09:21:53.633Z,6.63
2022-08-28T09:24:24.504Z,6.32
2022-08-28T09:26:57.530Z,8.35
2022-08-28T09:29:29.852Z,6.53
2022-08-28T09:31:56.245Z,6.30
2022-08-28T09:34:27.921Z,7.85
2022-08-28T09:36:55.605Z,5.70
2022-08-28T09:39:29.715Z,6.78
2022-08-28T09:42:41.072Z,5.88
2022-08-28T09:45:18.369Z,7.15
2022-08-28T09:47:49.363Z,4.72
2022-08-28T09:50:35.792Z,7.00
2022-08-28T09:53:11.586Z,6.63
2022-08-28T09:55:37.964Z,6.85
2022-08-28T09:58:04.832Z,5.95
2022-08-28T10:00:33.709Z,9.73
2022-08-28T10:03:07.716Z,9.25
2022-08-28T10:05:41.689Z,7.32
2022-08-28T10:08:24.936Z,5.40
2022-08-28T10:10:58.692Z,6.55
2022-08-28T10:13:35.468Z,4.95
2022-08-28T10:16:09.598Z,6.18
2022-08-28T10:18:39.978Z,5.82
2022-08-28T10:21:12.431Z,6.50
2022-08-28T10:23:41.438Z,5.35
2022-08-28T10:26:17.549Z,6.65
2022-08-28T10:29:03.131Z,7.15
2022-08-28T10:31:43.035Z,8.77
2022-08-28T10:34:21.696Z,7.78
2022-08-28T10:36:53.457Z,6.97
2022-08-28T10:39:25.839Z,5.78
2022-08-28T10:41:57.542Z,6.45
2022-08-28T10:44:26.652Z,4.72
2022-08-28T10:46:55.758Z,5.53
2022-08-28T10:49:22.046Z,5.90
2022-08-28T10:51:54.347Z,5.00
2022-08-28T10:54:23.753Z,5.78
2022-08-28T10:56:55.970Z,6.10
2022-08-28T10:59:23.627Z,7.90
2022-08-28T11:01:50.139Z,7.30
2022-08-28T11:04:25.406Z,6.20
2022-08-28T11:06:54.614Z,6.72
2022-08-28T11:09:37.262Z,6.07
2022-08-28T11:12:07.014Z,5.45
2022-08-28T11:14:39.439Z,5.75
2022-08-28T11:17:27.736Z,6.35
2022-08-28T11:19:54.188Z,5.90
2022-08-28T11:22:23.452Z,6.75
2022-08-28T11:25:07.638Z,7.43
2022-08-28T11:27:36.882Z,6.65
2022-08-28T11:30:06.300Z,4.53
2022-08-28T11:32:38.585Z,4.85
2022-08-28T11:35:31.643Z,9.15
2022-08-28T11:37:58.290Z,8.20
2022-08-28T11:40:30.575Z,11.38
2022-08-28T11:43:16.031Z,11.60
2022-08-28T11:45:46.536Z,8.02
2022-08-28T11:48:34.402Z,8.25
2022-08-28T11:51:06.272Z,6.60
2022-08-28T11:53:53.593Z,6.68
2022-08-28T11:56:30.512Z,5.10
2022-08-28T11:59:09.946Z,7.13
2022-08-28T12:01:37.018Z,4.00
2022-08-28T12:04:08.228Z,5.47
2022-08-28T12:06:51.989Z,6.40
2022-08-28T12:09:24.429Z,3.75
2022-08-28T12:11:51.863Z,4.32
2022-08-28T12:14:27.823Z,5.65
2022-08-28T12:17:03.636Z,5.18
2022-08-28T12:21:56.287Z,6.25
2022-08-28T12:24:23.327Z,7.43
2022-08-28T12:26:54.434Z,3.88
2022-08-28T12:29:35.889Z,6.90
2022-08-28T12:32:12.562Z,6.10
2022-08-28T12:34:42.332Z,6.20
2022-08-28T12:37:27.653Z,5.00
2022-08-28T12:39:56.224Z,4.80
2022-08-28T12:42:26.561Z,3.72
2022-08-28T12:44:52.847Z,3.80
2022-08-28T12:47:22.712Z,4.85
2022-08-28T12:49:49.028Z,5.38
2022-08-28T12:52:20.546Z,5.45
2022-08-28T12:54:48.083Z,4.10
2022-08-28T12:57:15.826Z,5.32
2022-08-28T12:59:43.751Z,3.90
2022-08-28T13:02:12.494Z,4.78
2022-08-28T13:04:53.623Z,3.13
2022-08-28T13:07:32.373Z,4.85
2022-08-28T13:10:02.326Z,6.78
2022-08-28T13:12:56.291Z,3.50
2022-08-28T13:15:43.118Z,2.75
2022-08-28T13:18:09.528Z,4.78
2022-08-28T13:20:37.222Z,3.92
2022-08-28T13:23:06.739Z,5.35
2022-08-28T13:25:37.225Z,3.72
2022-08-28T13:28:04.971Z,4.97
2022-08-28T13:30:34.855Z,3.88
2022-08-28T13:33:17.977Z,4.32
2022-08-28T13:35:44.311Z,5.18
2022-08-28T13:38:12.442Z,3.92
2022-08-28T13:41:00.097Z,3.63
2022-08-28T13:43:28.354Z,5.05
2022-08-28T13:45:54.716Z,12.57
2022-08-28T13:48:22.750Z,11.30
2022-08-28T13:51:03.130Z,16.63
2022-08-28T13:53:31.363Z,14.95
2022-08-28T13:56:00.138Z,8.10
2022-08-28T13:58:26.986Z,15.05
2022-08-28T14:00:53.385Z,9.68
2022-08-28T14:03:38.987Z,6.47
2022-08-28T14:06:12.852Z,7.45
2022-08-28T14:08:39.994Z,9.65
2022-08-28T14:11:07.207Z,6.38
2022-08-28T14:13:33.545Z,4.68
2022-08-28T14:15:59.945Z,6.78
2022-08-28T14:18:26.465Z,4.07
2022-08-28T14:20:52.745Z,6.15
2022-08-28T14:23:19.026Z,6.35
2022-08-28T14:25:46.192Z,4.88
2022-08-28T14:28:14.229Z,3.20
2022-08-28T14:30:43.910Z,4.78
2022-08-28T14:33:10.787Z,4.90
2022-08-28T14:35:40.715Z,4.20
2022-08-28T14:38:07.522Z,5.25
2022-08-28T14:40:38.243Z,5.30
2022-08-28T14:43:08.111Z,4.13
2022-08-28T14:45:40.849Z,4.32
2022-08-28T14:48:09.006Z,4.32
2022-08-28T14:50:38.438Z,4.38
2022-08-28T14:53:05.536Z,4.07
2022-08-28T14:55:31.894Z,2.30
2022-08-28T14:57:58.227Z,4.75
2022-08-28T15:00:24.566Z,3.80
2022-08-28T15:02:53.284Z,3.15
2022-08-28T15:05:26.020Z,3.95
2022-08-28T15:07:52.510Z,5.35
2022-08-28T15:10:18.860Z,3.60
2022-08-28T15:12:45.135Z,5.88
2022-08-28T15:15:13.395Z,5.38
2022-08-28T15:17:39.648Z,4.05
2022-08-28T15:20:06.419Z,5.30
2022-08-28T15:22:32.829Z,3.88
2022-08-28T15:24:59.150Z,3.22
2022-08-28T15:27:25.540Z,2.58
2022-08-28T15:29:52.228Z,8.77
2022-08-28T15:32:18.481Z,7.30
2022-08-28T15:34:44.829Z,9.82
2022-08-28T15:37:11.180Z,8.65
2022-08-28T15:39:58.646Z,6.85
2022-08-28T15:42:24.995Z,12.27
2022-08-28T15:44:51.266Z,7.60
2022-08-28T15:47:17.612Z,7.35
2022-08-28T15:49:49.657Z,8.73
2022-08-28T15:52:16.518Z,8.32
2022-08-28T15:54:42.813Z,6.03
2022-08-28T15:57:09.098Z,8.27
2022-08-28T15:59:39.957Z,5.72
2022-08-28T16:02:17.748Z,8.75
2022-08-28T16:04:44.069Z,5.97
2022-08-28T16:07:12.342Z,16.35
2022-08-28T16:09:38.616Z,7.38
2022-08-28T16:12:05.129Z,5.53
2022-08-28T16:14:32.646Z,5.88
2022-08-28T16:16:58.919Z,6.28
2022-08-28T16:19:25.400Z,5.82
2022-08-28T16:21:51.665Z,6.55
2022-08-28T16:24:17.966Z,5.40
2022-08-28T16:26:44.220Z,5.72
2022-08-28T16:29:12.917Z,5.82
2022-08-28T16:31:39.329Z,4.78
2022-08-28T16:34:06.832Z,5.05
2022-08-28T16:36:36.916Z,5.10
2022-08-28T16:39:04.243Z,6.35
2022-08-28T16:41:31.899Z,3.95
2022-08-28T16:43:58.751Z,3.85
2022-08-28T16:46:26.082Z,3.85
2022-08-28T16:48:53.805Z,4.88
2022-08-28T16:51:20.589Z,4.97
2022-08-28T16:53:47.674Z,3.92
2022-08-28T16:56:15.013Z,4.13
2022-08-28T16:58:42.449Z,4.05
2022-08-28T17:01:09.604Z,3.25
2022-08-28T17:03:38.572Z,3.75
2022-08-28T17:06:15.716Z,3.33
2022-08-28T17:08:42.431Z,5.63
2022-08-28T17:11:08.811Z,5.63
2022-08-28T17:13:35.109Z,3.60
2022-08-28T17:16:01.547Z,3.55
2022-08-28T17:18:28.158Z,5.80
2022-08-28T17:21:13.299Z,5.00
2022-08-28T17:23:39.877Z,5.75
2022-08-28T17:26:06.298Z,6.57
2022-08-28T17:28:32.616Z,4.82
2022-08-28T17:30:59.152Z,3.97
2022-08-28T17:33:25.491Z,3.90
2022-08-28T17:35:54.977Z,5.30
2022-08-28T17:38:21.937Z,4.15
2022-08-28T17:40:48.230Z,4.40
2022-08-28T17:43:14.531Z,4.32
2022-08-28T17:45:40.798Z,4.65
2022-08-28T17:48:07.169Z,5.78
2022-08-28T17:50:33.529Z,6.97
2022-08-28T17:52:59.777Z,12.95
2022-08-28T17:55:26.073Z,8.20
2022-08-28T17:57:52.352Z,6.93
2022-08-28T18:00:19.086Z,6.32
2022-08-28T18:02:45.455Z,10.05
2022-08-28T18:05:14.509Z,10.30
2022-08-28T18:07:40.952Z,9.75
2022-08-28T18:10:09.162Z,11.32
2022-08-28T18:12:36.353Z,9.45
2022-08-28T18:15:03.887Z,14.02
2022-08-28T18:17:30.310Z,14.02
2022-08-28T18:19:57.309Z,13.68
2022-08-28T18:22:29.016Z,17.40
2022-08-28T18:24:56.013Z,36.13
2022-08-28T18:27:22.651Z,34.60
2022-08-28T18:29:49.497Z,44.70
2022-08-28T18:32:15.787Z,47.65
2022-08-28T18:34:42.121Z,50.10
2022-08-28T18:37:08.454Z,54.05
2022-08-28T18:39:35.861Z,44.17
2022-08-28T18:42:02.192Z,51.08
2022-08-28T18:44:28.667Z,51.08
2022-08-28T18:46:55.050Z,41.97
2022-08-28T18:49:21.432Z,50.72
2022-08-28T18:51:48.102Z,38.80
2022-08-28T18:54:16.537Z,37.90
2022-08-28T18:56:42.999Z,31.15
2022-08-28T18:59:09.401Z,27.98
2022-08-28T19:01:35.851Z,29.40
2022-08-28T19:04:02.531Z,32.75
2022-08-28T19:06:28.855Z,25.10
2022-08-28T19:08:55.339Z,24.02
2022-08-28T19:11:21.639Z,27.42
2022-08-28T19:13:47.943Z,26.70
2022-08-28T19:16:18.908Z,33.10
2022-08-28T19:18:45.811Z,25.90
2022-08-28T19:21:16.444Z,27.17
2022-08-28T19:23:43.298Z,29.92
2022-08-28T19:26:22.536Z,33.15
2022-08-28T19:28:50.485Z,28.92
2022-08-28T19:31:17.832Z,22.25
2022-08-28T19:33:46.330Z,29.70
2022-08-28T19:36:13.562Z,28.77
2022-08-28T19:38:40.446Z,24.13
2022-08-28T19:41:07.907Z,21.48
2022-08-28T19:43:42.613Z,20.40
2022-08-28T19:46:14.480Z,24.65
2022-08-28T19:48:46.379Z,19.30
2022-08-28T19:51:17.566Z,14.85
2022-08-28T19:53:56.132Z,16.37
2022-08-28T19:56:27.038Z,15.48
2022-08-28T19:58:54.632Z,15.65
2022-08-28T20:01:21.135Z,12.45
2022-08-28T20:03:47.582Z,14.75
2022-08-28T20:06:13.852Z,14.93
2022-08-28T20:08:40.214Z,10.43
2022-08-28T20:11:06.622Z,8.88
2022-08-28T20:13:33.286Z,12.27
2022-08-28T20:16:02.875Z,22.83
2022-08-28T20:18:29.163Z,10.93
2022-08-28T20:20:55.413Z,9.05
2022-08-28T20:23:21.718Z,8.20
2022-08-28T20:25:49.396Z,8.63
2022-08-28T20:28:16.703Z,7.05
2022-08-28T20:30:43.342Z,7.70
2022-08-28T20:33:09.790Z,7.47
2022-08-28T20:35:36.406Z,9.13
2022-08-28T20:38:03.421Z,8.02
2022-08-28T20:40:30.142Z,10.00
2022-08-28T20:42:57.865Z,8.13
2022-08-28T20:45:25.000Z,7.03
2022-08-28T20:47:51.727Z,5.57
2022-08-28T20:50:18.086Z,7.45
2022-08-28T20:52:44.345Z,6.88
2022-08-28T20:55:11.535Z,8.80
2022-08-28T20:57:37.847Z,6.30
2022-08-28T21:00:06.376Z,6.60
2022-08-28T21:02:33.069Z,5.97
2022-08-28T21:04:59.565Z,5.10
2022-08-28T21:07:26.258Z,6.38
2022-08-28T21:10:06.217Z,6.28
2022-08-28T21:12:34.671Z,6.40
2022-08-28T21:15:01.108Z,7.38
2022-08-28T21:17:30.233Z,7.18
2022-08-28T21:20:01.239Z,6.55
2022-08-28T21:22:29.547Z,7.95
2022-08-28T21:24:55.912Z,5.78
2022-08-28T21:27:22.207Z,6.80
2022-08-28T21:29:48.656Z,6.20
2022-08-28T21:32:15.074Z,5.70
2022-08-28T21:34:41.363Z,4.97
2022-08-28T21:37:07.744Z,5.03
2022-08-28T21:39:34.858Z,5.22
2022-08-28T21:42:01.204Z,5.05
2022-08-28T21:44:27.548Z,5.68
2022-08-28T21:46:56.587Z,6.38
2022-08-28T21:49:22.989Z,3.90
2022-08-28T21:51:49.951Z,4.00
2022-08-28T21:54:16.554Z,5.88
2022-08-28T21:56:42.853Z,4.57
2022-08-28T21:59:09.132Z,3.88
2022-08-28T22:01:35.587Z,5.28
2022-08-28T22:04:02.195Z,4.57
2022-08-28T22:06:28.616Z,3.83
2022-08-28T22:08:55.677Z,5.43
2022-08-28T22:11:24.724Z,4.93
2022-08-28T22:13:51.919Z,3.50
2022-08-28T22:16:18.671Z,4.82
2022-08-28T22:18:44.982Z,5.00
2022-08-28T22:21:32.239Z,6.32
2022-08-28T22:23:58.574Z,4.03
2022-08-28T22:26:25.179Z,4.90
2022-08-28T22:28:51.675Z,3.60
2022-08-28T22:31:18.053Z,5.03
2022-08-28T22:33:45.353Z,4.47
2022-08-28T22:36:11.831Z,4.55
2022-08-28T22:38:39.002Z,4.28
2022-08-28T22:41:06.125Z,5.18
2022-08-28T22:43:32.591Z,3.42
2022-08-28T22:45:58.877Z,4.10
2022-08-28T22:48:25.228Z,5.00
2022-08-28T22:50:51.514Z,4.20
2022-08-28T22:53:17.973Z,3.58
2022-08-28T22:55:44.764Z,4.82
2022-08-28T22:58:11.623Z,3.85
2022-08-28T23:00:40.119Z,4.18
2022-08-28T23:03:06.695Z,3.95
2022-08-28T23:05:33.870Z,4.93
2022-08-28T23:08:00.189Z,4.75
2022-08-28T23:10:48.294Z,5.13
2022-08-28T23:13:14.250Z,3.28
2022-08-28T23:15:40.999Z,3.15
2022-08-28T23:18:08.223Z,3.38
2022-08-28T23:20:34.649Z,4.22
2022-08-28T23:23:01.557Z,4.85
2022-08-28T23:25:28.072Z,4.85
2022-08-28T23:27:55.847Z,6.97
2022-08-28T23:30:22.481Z,3.40
2022-08-28T23:32:48.771Z,3.25
2022-08-28T23:35:15.727Z,5.78
2022-08-28T23:37:45.536Z,5.95
2022-08-28T23:40:18.720Z,4.22
2022-08-28T23:42:45.687Z,2.95
2022-08-28T23:45:15.885Z,4.18
2022-08-28T23:47:43.349Z,4.47
2022-08-28T23:50:11.973Z,4.38
2022-08-28T23:52:38.365Z,3.67
2022-08-28T23:55:07.941Z,3.78
2022-08-28T23:57:34.365Z,4.35
